sensor_id;sensor_type;location;lat;lon;timestamp;temperature;humidity
38436;DHT22;24220;48.168;14.024;2023-06-22T00:01:33;27.40;54.30
38436;DHT22;24220;48.168;14.024;2023-06-22T00:04:00;27.30;54.50
38436;DHT22;24220;48.168;14.024;2023-06-22T00:06:28;27.30;54.10
38436;DHT22;24220;48.168;14.024;2023-06-22T00:08:55;27.30;54.40
38436;DHT22;24220;48.168;14.024;2023-06-22T00:11:23;27.30;54.30
38436;DHT22;24220;48.168;14.024;2023-06-22T00:13:52;27.20;54.60
38436;DHT22;24220;48.168;14.024;2023-06-22T00:16:20;27.20;54.50
38436;DHT22;24220;48.168;14.024;2023-06-22T00:18:47;27.20;54.80
38436;DHT22;24220;48.168;14.024;2023-06-22T00:21:18;27.10;54.90
38436;DHT22;24220;48.168;14.024;2023-06-22T00:23:47;27.10;54.70
38436;DHT22;24220;48.168;14.024;2023-06-22T00:26:14;27.00;54.60
38436;DHT22;24220;48.168;14.024;2023-06-22T00:28:42;27.00;55.10
38436;DHT22;24220;48.168;14.024;2023-06-22T00:31:12;27.00;55.20
38436;DHT22;24220;48.168;14.024;2023-06-22T00:33:41;26.90;55.50
38436;DHT22;24220;48.168;14.024;2023-06-22T00:36:09;26.90;55.60
38436;DHT22;24220;48.168;14.024;2023-06-22T00:38:40;26.90;55.80
38436;DHT22;24220;48.168;14.024;2023-06-22T00:41:07;26.80;55.70
38436;DHT22;24220;48.168;14.024;2023-06-22T00:43:35;26.80;55.50
38436;DHT22;24220;48.168;14.024;2023-06-22T00:46:02;26.80;55.80
38436;DHT22;24220;48.168;14.024;2023-06-22T00:48:30;26.80;56.00
38436;DHT22;24220;48.168;14.024;2023-06-22T00:50:57;26.70;55.90
38436;DHT22;24220;48.168;14.024;2023-06-22T00:53:27;26.70;56.20
38436;DHT22;24220;48.168;14.024;2023-06-22T00:55:57;26.60;56.30
38436;DHT22;24220;48.168;14.024;2023-06-22T00:58:26;26.60;56.40
38436;DHT22;24220;48.168;14.024;2023-06-22T01:00:54;26.50;56.60
38436;DHT22;24220;48.168;14.024;2023-06-22T01:03:24;26.50;56.80
38436;DHT22;24220;48.168;14.024;2023-06-22T01:05:55;26.50;57.20
38436;DHT22;24220;48.168;14.024;2023-06-22T01:08:49;26.40;56.90
38436;DHT22;24220;48.168;14.024;2023-06-22T01:11:28;26.40;56.80
38436;DHT22;24220;48.168;14.024;2023-06-22T01:14:00;26.40;57.20
38436;DHT22;24220;48.168;14.024;2023-06-22T01:16:33;26.30;57.70
38436;DHT22;24220;48.168;14.024;2023-06-22T01:19:18;26.30;57.20
38436;DHT22;24220;48.168;14.024;2023-06-22T01:21:51;26.30;57.50
38436;DHT22;24220;48.168;14.024;2023-06-22T01:25:07;26.30;57.60
38436;DHT22;24220;48.168;14.024;2023-06-22T01:29:56;26.20;57.50
38436;DHT22;24220;48.168;14.024;2023-06-22T01:32:33;26.10;57.60
38436;DHT22;24220;48.168;14.024;2023-06-22T01:35:03;26.10;58.00
38436;DHT22;24220;48.168;14.024;2023-06-22T01:37:32;26.10;57.70
38436;DHT22;24220;48.168;14.024;2023-06-22T01:40:01;26.10;57.70
38436;DHT22;24220;48.168;14.024;2023-06-22T01:42:28;26.10;57.70
38436;DHT22;24220;48.168;14.024;2023-06-22T01:44:57;26.00;58.00
38436;DHT22;24220;48.168;14.024;2023-06-22T01:47:25;26.00;58.10
38436;DHT22;24220;48.168;14.024;2023-06-22T01:49:56;26.00;58.30
38436;DHT22;24220;48.168;14.024;2023-06-22T01:52:23;26.00;58.30
38436;DHT22;24220;48.168;14.024;2023-06-22T01:54:51;25.90;58.20
38436;DHT22;24220;48.168;14.024;2023-06-22T01:57:20;25.90;58.40
38436;DHT22;24220;48.168;14.024;2023-06-22T02:02:37;25.90;58.80
38436;DHT22;24220;48.168;14.024;2023-06-22T02:05:11;25.80;58.70
38436;DHT22;24220;48.168;14.024;2023-06-22T02:07:56;25.80;58.50
38436;DHT22;24220;48.168;14.024;2023-06-22T02:10:30;25.80;58.40
38436;DHT22;24220;48.168;14.024;2023-06-22T02:13:01;25.80;58.40
38436;DHT22;24220;48.168;14.024;2023-06-22T02:15:29;25.70;57.30
38436;DHT22;24220;48.168;14.024;2023-06-22T02:18:00;25.70;58.20
38436;DHT22;24220;48.168;14.024;2023-06-22T02:20:30;25.60;58.30
38436;DHT22;24220;48.168;14.024;2023-06-22T02:22:59;25.60;58.50
38436;DHT22;24220;48.168;14.024;2023-06-22T02:25:27;25.50;58.80
38436;DHT22;24220;48.168;14.024;2023-06-22T02:27:56;25.40;58.70
38436;DHT22;24220;48.168;14.024;2023-06-22T02:30:24;25.40;58.80
38436;DHT22;24220;48.168;14.024;2023-06-22T02:32:51;25.30;58.80
38436;DHT22;24220;48.168;14.024;2023-06-22T02:35:29;25.30;59.00
38436;DHT22;24220;48.168;14.024;2023-06-22T02:38:03;25.20;59.10
38436;DHT22;24220;48.168;14.024;2023-06-22T02:40:33;25.20;59.40
38436;DHT22;24220;48.168;14.024;2023-06-22T02:43:02;25.20;59.50
38436;DHT22;24220;48.168;14.024;2023-06-22T02:45:30;25.20;60.00
38436;DHT22;24220;48.168;14.024;2023-06-22T02:47:59;25.20;59.40
38436;DHT22;24220;48.168;14.024;2023-06-22T02:50:29;25.20;59.50
38436;DHT22;24220;48.168;14.024;2023-06-22T02:52:59;25.10;59.70
38436;DHT22;24220;48.168;14.024;2023-06-22T02:55:31;25.10;59.80
38436;DHT22;24220;48.168;14.024;2023-06-22T02:57:59;25.10;59.90
38436;DHT22;24220;48.168;14.024;2023-06-22T03:00:29;25.20;60.00
38436;DHT22;24220;48.168;14.024;2023-06-22T03:02:58;25.20;60.10
38436;DHT22;24220;48.168;14.024;2023-06-22T03:05:25;25.20;58.90
38436;DHT22;24220;48.168;14.024;2023-06-22T03:07:57;25.20;59.70
38436;DHT22;24220;48.168;14.024;2023-06-22T03:10:25;25.20;59.90
38436;DHT22;24220;48.168;14.024;2023-06-22T03:12:57;25.20;59.90
38436;DHT22;24220;48.168;14.024;2023-06-22T03:15:26;25.20;60.20
38436;DHT22;24220;48.168;14.024;2023-06-22T03:17:59;25.20;60.30
38436;DHT22;24220;48.168;14.024;2023-06-22T03:20:28;25.10;60.10
38436;DHT22;24220;48.168;14.024;2023-06-22T03:23:00;25.10;60.20
38436;DHT22;24220;48.168;14.024;2023-06-22T03:25:28;25.10;60.00
38436;DHT22;24220;48.168;14.024;2023-06-22T03:27:55;25.10;60.00
38436;DHT22;24220;48.168;14.024;2023-06-22T03:30:22;25.10;59.90
38436;DHT22;24220;48.168;14.024;2023-06-22T03:32:49;25.10;59.90
38436;DHT22;24220;48.168;14.024;2023-06-22T03:35:17;25.10;60.00
38436;DHT22;24220;48.168;14.024;2023-06-22T03:37:51;25.10;60.40
38436;DHT22;24220;48.168;14.024;2023-06-22T03:40:18;25.00;60.10
38436;DHT22;24220;48.168;14.024;2023-06-22T03:42:46;25.00;60.10
38436;DHT22;24220;48.168;14.024;2023-06-22T03:45:16;25.10;60.00
38436;DHT22;24220;48.168;14.024;2023-06-22T03:47:46;25.10;60.10
38436;DHT22;24220;48.168;14.024;2023-06-22T03:50:13;25.10;60.30
38436;DHT22;24220;48.168;14.024;2023-06-22T03:52:44;25.10;60.30
38436;DHT22;24220;48.168;14.024;2023-06-22T03:55:11;25.10;60.20
38436;DHT22;24220;48.168;14.024;2023-06-22T03:57:39;25.10;60.00
38436;DHT22;24220;48.168;14.024;2023-06-22T04:00:06;25.10;59.90
38436;DHT22;24220;48.168;14.024;2023-06-22T04:02:35;25.10;60.00
38436;DHT22;24220;48.168;14.024;2023-06-22T04:05:02;25.10;60.10
38436;DHT22;24220;48.168;14.024;2023-06-22T04:07:33;25.10;60.10
38436;DHT22;24220;48.168;14.024;2023-06-22T04:10:05;25.10;60.90
38436;DHT22;24220;48.168;14.024;2023-06-22T04:12:32;25.10;60.30
38436;DHT22;24220;48.168;14.024;2023-06-22T04:15:00;25.10;60.50
38436;DHT22;24220;48.168;14.024;2023-06-22T04:17:27;25.10;60.50
38436;DHT22;24220;48.168;14.024;2023-06-22T04:19:54;25.10;60.60
38436;DHT22;24220;48.168;14.024;2023-06-22T04:22:22;25.10;60.80
38436;DHT22;24220;48.168;14.024;2023-06-22T04:24:49;25.10;60.70
38436;DHT22;24220;48.168;14.024;2023-06-22T04:27:19;25.10;61.30
38436;DHT22;24220;48.168;14.024;2023-06-22T04:29:46;25.10;60.70
38436;DHT22;24220;48.168;14.024;2023-06-22T04:32:20;25.10;60.90
38436;DHT22;24220;48.168;14.024;2023-06-22T04:34:48;25.10;61.50
38436;DHT22;24220;48.168;14.024;2023-06-22T04:37:15;25.20;61.80
38436;DHT22;24220;48.168;14.024;2023-06-22T04:39:43;25.20;61.00
38436;DHT22;24220;48.168;14.024;2023-06-22T04:42:12;25.20;61.80
38436;DHT22;24220;48.168;14.024;2023-06-22T04:44:39;25.10;61.40
38436;DHT22;24220;48.168;14.024;2023-06-22T04:47:09;25.20;61.40
38436;DHT22;24220;48.168;14.024;2023-06-22T04:49:38;25.20;61.20
38436;DHT22;24220;48.168;14.024;2023-06-22T04:52:11;25.20;61.30
38436;DHT22;24220;48.168;14.024;2023-06-22T04:54:40;25.20;60.10
38436;DHT22;24220;48.168;14.024;2023-06-22T04:57:15;25.20;60.30
38436;DHT22;24220;48.168;14.024;2023-06-22T04:59:42;25.20;60.20
38436;DHT22;24220;48.168;14.024;2023-06-22T05:02:13;25.20;60.30
38436;DHT22;24220;48.168;14.024;2023-06-22T05:04:40;25.20;60.00
38436;DHT22;24220;48.168;14.024;2023-06-22T05:07:08;25.20;60.80
38436;DHT22;24220;48.168;14.024;2023-06-22T05:09:36;25.20;60.20
38436;DHT22;24220;48.168;14.024;2023-06-22T05:12:03;25.30;60.40
38436;DHT22;24220;48.168;14.024;2023-06-22T05:14:35;25.30;61.20
38436;DHT22;24220;48.168;14.024;2023-06-22T05:17:02;25.40;60.90
38436;DHT22;24220;48.168;14.024;2023-06-22T05:19:31;25.30;60.50
38436;DHT22;24220;48.168;14.024;2023-06-22T05:22:01;25.40;60.70
38436;DHT22;24220;48.168;14.024;2023-06-22T05:24:29;25.40;61.40
38436;DHT22;24220;48.168;14.024;2023-06-22T05:26:56;25.40;61.50
38436;DHT22;24220;48.168;14.024;2023-06-22T05:29:26;25.40;61.30
38436;DHT22;24220;48.168;14.024;2023-06-22T05:31:53;25.50;61.70
38436;DHT22;24220;48.168;14.024;2023-06-22T05:34:21;25.50;62.50
38436;DHT22;24220;48.168;14.024;2023-06-22T05:36:48;25.50;63.70
38436;DHT22;24220;48.168;14.024;2023-06-22T05:39:16;25.50;63.80
38436;DHT22;24220;48.168;14.024;2023-06-22T05:41:45;25.50;61.80
38436;DHT22;24220;48.168;14.024;2023-06-22T05:44:13;25.50;63.80
38436;DHT22;24220;48.168;14.024;2023-06-22T05:46:46;25.60;63.70
38436;DHT22;24220;48.168;14.024;2023-06-22T05:49:15;25.60;64.20
38436;DHT22;24220;48.168;14.024;2023-06-22T05:51:43;25.60;64.30
38436;DHT22;24220;48.168;14.024;2023-06-22T05:54:13;25.60;63.00
38436;DHT22;24220;48.168;14.024;2023-06-22T05:56:42;25.70;62.50
38436;DHT22;24220;48.168;14.024;2023-06-22T05:59:10;25.70;62.40
38436;DHT22;24220;48.168;14.024;2023-06-22T06:01:37;25.70;62.00
38436;DHT22;24220;48.168;14.024;2023-06-22T06:04:07;25.80;62.00
38436;DHT22;24220;48.168;14.024;2023-06-22T06:06:37;25.80;62.40
38436;DHT22;24220;48.168;14.024;2023-06-22T06:09:05;25.90;62.60
38436;DHT22;24220;48.168;14.024;2023-06-22T06:11:35;26.00;62.00
38436;DHT22;24220;48.168;14.024;2023-06-22T06:14:02;26.00;62.20
38436;DHT22;24220;48.168;14.024;2023-06-22T06:16:32;26.10;61.80
38436;DHT22;24220;48.168;14.024;2023-06-22T06:19:02;26.20;61.80
38436;DHT22;24220;48.168;14.024;2023-06-22T06:21:29;26.30;61.70
38436;DHT22;24220;48.168;14.024;2023-06-22T06:23:59;26.40;61.50
38436;DHT22;24220;48.168;14.024;2023-06-22T06:26:27;26.40;61.50
38436;DHT22;24220;48.168;14.024;2023-06-22T06:29:01;26.50;61.00
38436;DHT22;24220;48.168;14.024;2023-06-22T06:31:31;26.50;61.30
38436;DHT22;24220;48.168;14.024;2023-06-22T06:33:58;26.70;61.10
38436;DHT22;24220;48.168;14.024;2023-06-22T06:36:28;26.70;61.20
38436;DHT22;24220;48.168;14.024;2023-06-22T06:38:56;26.80;60.70
38436;DHT22;24220;48.168;14.024;2023-06-22T06:41:24;26.90;60.60
38436;DHT22;24220;48.168;14.024;2023-06-22T06:43:53;26.90;60.60
38436;DHT22;24220;48.168;14.024;2023-06-22T06:46:23;27.00;60.60
38436;DHT22;24220;48.168;14.024;2023-06-22T06:48:50;27.10;60.20
38436;DHT22;24220;48.168;14.024;2023-06-22T06:51:17;27.10;59.80
38436;DHT22;24220;48.168;14.024;2023-06-22T06:53:47;27.20;59.90
38436;DHT22;24220;48.168;14.024;2023-06-22T06:56:15;27.20;59.60
38436;DHT22;24220;48.168;14.024;2023-06-22T06:58:43;27.30;58.90
38436;DHT22;24220;48.168;14.024;2023-06-22T07:01:13;27.40;59.20
38436;DHT22;24220;48.168;14.024;2023-06-22T07:03:40;27.50;59.60
38436;DHT22;24220;48.168;14.024;2023-06-22T07:06:08;27.50;58.90
38436;DHT22;24220;48.168;14.024;2023-06-22T07:08:38;27.60;58.70
38436;DHT22;24220;48.168;14.024;2023-06-22T07:11:10;27.70;58.20
38436;DHT22;24220;48.168;14.024;2023-06-22T07:13:40;27.80;58.20
38436;DHT22;24220;48.168;14.024;2023-06-22T07:16:15;27.90;58.20
38436;DHT22;24220;48.168;14.024;2023-06-22T07:18:42;28.00;59.50
38436;DHT22;24220;48.168;14.024;2023-06-22T07:21:12;28.10;59.40
38436;DHT22;24220;48.168;14.024;2023-06-22T07:23:42;28.20;57.90
38436;DHT22;24220;48.168;14.024;2023-06-22T07:26:09;28.30;57.50
38436;DHT22;24220;48.168;14.024;2023-06-22T07:28:36;28.40;57.30
38436;DHT22;24220;48.168;14.024;2023-06-22T07:31:05;28.50;56.80
38436;DHT22;24220;48.168;14.024;2023-06-22T07:33:36;28.60;57.40
38436;DHT22;24220;48.168;14.024;2023-06-22T07:36:06;28.70;57.20
38436;DHT22;24220;48.168;14.024;2023-06-22T07:38:35;28.70;57.90
38436;DHT22;24220;48.168;14.024;2023-06-22T07:41:04;28.80;57.10
38436;DHT22;24220;48.168;14.024;2023-06-22T07:43:32;28.90;57.10
38436;DHT22;24220;48.168;14.024;2023-06-22T07:46:01;29.00;56.80
38436;DHT22;24220;48.168;14.024;2023-06-22T07:48:31;29.10;57.00
38436;DHT22;24220;48.168;14.024;2023-06-22T07:50:59;29.10;57.20
38436;DHT22;24220;48.168;14.024;2023-06-22T07:53:27;29.20;57.20
38436;DHT22;24220;48.168;14.024;2023-06-22T07:55:55;29.30;57.50
38436;DHT22;24220;48.168;14.024;2023-06-22T07:58:23;29.40;56.30
38436;DHT22;24220;48.168;14.024;2023-06-22T08:00:50;29.50;56.50
38436;DHT22;24220;48.168;14.024;2023-06-22T08:03:17;29.50;56.90
38436;DHT22;24220;48.168;14.024;2023-06-22T08:05:45;29.60;55.70
38436;DHT22;24220;48.168;14.024;2023-06-22T08:08:12;29.70;55.30
38436;DHT22;24220;48.168;14.024;2023-06-22T08:10:41;29.80;55.40
38436;DHT22;24220;48.168;14.024;2023-06-22T08:13:11;29.80;55.20
38436;DHT22;24220;48.168;14.024;2023-06-22T08:15:39;29.90;55.60
38436;DHT22;24220;48.168;14.024;2023-06-22T08:18:08;29.90;55.10
38436;DHT22;24220;48.168;14.024;2023-06-22T08:20:38;30.00;55.30
38436;DHT22;24220;48.168;14.024;2023-06-22T08:23:06;30.10;55.50
38436;DHT22;24220;48.168;14.024;2023-06-22T08:25:34;30.10;56.10
38436;DHT22;24220;48.168;14.024;2023-06-22T08:28:04;30.20;55.60
38436;DHT22;24220;48.168;14.024;2023-06-22T08:30:37;30.20;54.90
38436;DHT22;24220;48.168;14.024;2023-06-22T08:33:06;30.30;55.40
38436;DHT22;24220;48.168;14.024;2023-06-22T08:35:34;30.30;54.60
38436;DHT22;24220;48.168;14.024;2023-06-22T08:38:01;30.40;55.50
38436;DHT22;24220;48.168;14.024;2023-06-22T08:40:29;30.40;55.90
38436;DHT22;24220;48.168;14.024;2023-06-22T08:42:56;30.50;55.20
38436;DHT22;24220;48.168;14.024;2023-06-22T08:45:23;30.50;55.30
38436;DHT22;24220;48.168;14.024;2023-06-22T08:47:52;30.60;56.30
38436;DHT22;24220;48.168;14.024;2023-06-22T08:50:20;30.70;55.50
38436;DHT22;24220;48.168;14.024;2023-06-22T08:52:47;30.70;55.50
38436;DHT22;24220;48.168;14.024;2023-06-22T08:55:15;30.80;55.80
38436;DHT22;24220;48.168;14.024;2023-06-22T08:57:42;30.90;55.50
38436;DHT22;24220;48.168;14.024;2023-06-22T09:00:11;30.90;55.10
38436;DHT22;24220;48.168;14.024;2023-06-22T09:02:44;31.00;55.20
38436;DHT22;24220;48.168;14.024;2023-06-22T09:05:12;31.00;55.40
38436;DHT22;24220;48.168;14.024;2023-06-22T09:07:40;31.10;54.90
38436;DHT22;24220;48.168;14.024;2023-06-22T09:10:10;31.10;53.70
38436;DHT22;24220;48.168;14.024;2023-06-22T09:12:39;31.20;54.60
38436;DHT22;24220;48.168;14.024;2023-06-22T09:15:07;31.30;54.10
38436;DHT22;24220;48.168;14.024;2023-06-22T09:17:43;31.30;53.00
38436;DHT22;24220;48.168;14.024;2023-06-22T09:20:12;31.40;54.00
38436;DHT22;24220;48.168;14.024;2023-06-22T09:22:42;31.40;54.00
38436;DHT22;24220;48.168;14.024;2023-06-22T09:25:11;31.50;52.20
38436;DHT22;24220;48.168;14.024;2023-06-22T09:27:39;31.60;52.60
38436;DHT22;24220;48.168;14.024;2023-06-22T09:30:09;31.60;51.30
38436;DHT22;24220;48.168;14.024;2023-06-22T09:32:41;31.70;51.30
38436;DHT22;24220;48.168;14.024;2023-06-22T09:35:09;31.80;50.30
38436;DHT22;24220;48.168;14.024;2023-06-22T09:37:40;31.80;50.40
38436;DHT22;24220;48.168;14.024;2023-06-22T09:40:08;31.90;50.10
38436;DHT22;24220;48.168;14.024;2023-06-22T09:42:37;32.00;50.40
38436;DHT22;24220;48.168;14.024;2023-06-22T09:45:06;32.10;50.10
38436;DHT22;24220;48.168;14.024;2023-06-22T09:47:33;32.20;49.70
38436;DHT22;24220;48.168;14.024;2023-06-22T09:50:01;32.20;49.50
38436;DHT22;24220;48.168;14.024;2023-06-22T09:52:30;32.30;48.50
38436;DHT22;24220;48.168;14.024;2023-06-22T09:55:13;32.40;48.20
38436;DHT22;24220;48.168;14.024;2023-06-22T09:57:43;32.50;49.00
38436;DHT22;24220;48.168;14.024;2023-06-22T10:00:16;32.50;49.60
38436;DHT22;24220;48.168;14.024;2023-06-22T10:02:44;32.60;48.90
38436;DHT22;24220;48.168;14.024;2023-06-22T10:05:17;32.70;49.70
38436;DHT22;24220;48.168;14.024;2023-06-22T10:07:44;32.70;48.70
38436;DHT22;24220;48.168;14.024;2023-06-22T10:10:12;32.90;49.10
38436;DHT22;24220;48.168;14.024;2023-06-22T10:12:47;32.90;49.70
38436;DHT22;24220;48.168;14.024;2023-06-22T10:15:17;33.10;50.60
38436;DHT22;24220;48.168;14.024;2023-06-22T10:17:45;33.20;48.90
38436;DHT22;24220;48.168;14.024;2023-06-22T10:20:13;33.20;48.40
38436;DHT22;24220;48.168;14.024;2023-06-22T10:22:42;33.30;48.10
38436;DHT22;24220;48.168;14.024;2023-06-22T10:25:11;33.40;47.80
38436;DHT22;24220;48.168;14.024;2023-06-22T10:27:41;33.40;48.70
38436;DHT22;24220;48.168;14.024;2023-06-22T10:30:10;33.50;47.70
38436;DHT22;24220;48.168;14.024;2023-06-22T10:32:42;33.60;48.00
38436;DHT22;24220;48.168;14.024;2023-06-22T10:35:12;33.70;47.90
38436;DHT22;24220;48.168;14.024;2023-06-22T10:37:43;33.80;47.70
38436;DHT22;24220;48.168;14.024;2023-06-22T10:40:12;33.90;48.30
38436;DHT22;24220;48.168;14.024;2023-06-22T10:42:41;34.00;47.20
38436;DHT22;24220;48.168;14.024;2023-06-22T10:45:09;34.10;47.20
38436;DHT22;24220;48.168;14.024;2023-06-22T10:47:39;34.20;47.50
38436;DHT22;24220;48.168;14.024;2023-06-22T10:50:09;34.30;48.20
38436;DHT22;24220;48.168;14.024;2023-06-22T10:52:41;34.40;46.90
38436;DHT22;24220;48.168;14.024;2023-06-22T10:55:09;34.50;47.10
38436;DHT22;24220;48.168;14.024;2023-06-22T10:57:37;34.60;46.70
38436;DHT22;24220;48.168;14.024;2023-06-22T11:00:11;34.70;46.60
38436;DHT22;24220;48.168;14.024;2023-06-22T11:02:39;34.80;46.50
38436;DHT22;24220;48.168;14.024;2023-06-22T11:05:07;34.90;47.20
38436;DHT22;24220;48.168;14.024;2023-06-22T11:07:34;35.00;46.10
38436;DHT22;24220;48.168;14.024;2023-06-22T11:10:10;35.10;46.80
38436;DHT22;24220;48.168;14.024;2023-06-22T11:12:39;35.20;47.10
38436;DHT22;24220;48.168;14.024;2023-06-22T11:15:08;35.30;46.50
38436;DHT22;24220;48.168;14.024;2023-06-22T11:17:38;35.40;46.30
38436;DHT22;24220;48.168;14.024;2023-06-22T11:20:06;35.40;46.90
38436;DHT22;24220;48.168;14.024;2023-06-22T11:22:39;35.50;46.70
38436;DHT22;24220;48.168;14.024;2023-06-22T11:25:07;35.60;46.30
38436;DHT22;24220;48.168;14.024;2023-06-22T11:27:35;35.60;45.60
38436;DHT22;24220;48.168;14.024;2023-06-22T11:30:02;35.70;45.90
38436;DHT22;24220;48.168;14.024;2023-06-22T11:32:30;35.80;45.60
38436;DHT22;24220;48.168;14.024;2023-06-22T11:34:57;35.90;45.50
38436;DHT22;24220;48.168;14.024;2023-06-22T11:37:25;35.90;45.50
38436;DHT22;24220;48.168;14.024;2023-06-22T11:39:53;36.10;45.70
38436;DHT22;24220;48.168;14.024;2023-06-22T11:42:33;36.20;45.30
38436;DHT22;24220;48.168;14.024;2023-06-22T11:45:02;36.30;44.40
38436;DHT22;24220;48.168;14.024;2023-06-22T11:47:32;36.30;44.80
38436;DHT22;24220;48.168;14.024;2023-06-22T11:50:02;36.40;46.10
38436;DHT22;24220;48.168;14.024;2023-06-22T11:52:30;36.50;44.70
38436;DHT22;24220;48.168;14.024;2023-06-22T11:54:59;36.50;44.70
38436;DHT22;24220;48.168;14.024;2023-06-22T11:57:32;36.60;45.40
38436;DHT22;24220;48.168;14.024;2023-06-22T12:00:00;36.70;45.50
38436;DHT22;24220;48.168;14.024;2023-06-22T12:02:33;36.90;45.60
38436;DHT22;24220;48.168;14.024;2023-06-22T12:05:00;37.00;44.70
38436;DHT22;24220;48.168;14.024;2023-06-22T12:07:31;37.20;43.90
38436;DHT22;24220;48.168;14.024;2023-06-22T12:09:59;37.40;43.40
38436;DHT22;24220;48.168;14.024;2023-06-22T12:12:26;37.70;43.80
38436;DHT22;24220;48.168;14.024;2023-06-22T12:14:57;38.00;43.50
38436;DHT22;24220;48.168;14.024;2023-06-22T12:17:24;38.30;43.30
38436;DHT22;24220;48.168;14.024;2023-06-22T12:19:51;38.60;43.80
38436;DHT22;24220;48.168;14.024;2023-06-22T12:22:19;39.00;44.40
38436;DHT22;24220;48.168;14.024;2023-06-22T12:24:46;39.40;43.00
38436;DHT22;24220;48.168;14.024;2023-06-22T12:27:14;39.70;42.10
38436;DHT22;24220;48.168;14.024;2023-06-22T12:29:45;40.10;42.30
38436;DHT22;24220;48.168;14.024;2023-06-22T12:32:13;40.30;41.50
38436;DHT22;24220;48.168;14.024;2023-06-22T12:34:44;40.40;42.20
38436;DHT22;24220;48.168;14.024;2023-06-22T12:37:12;40.50;42.40
38436;DHT22;24220;48.168;14.024;2023-06-22T12:39:41;40.60;41.90
38436;DHT22;24220;48.168;14.024;2023-06-22T12:42:09;40.70;41.90
38436;DHT22;24220;48.168;14.024;2023-06-22T12:44:39;40.80;42.00
38436;DHT22;24220;48.168;14.024;2023-06-22T12:47:09;40.80;42.30
38436;DHT22;24220;48.168;14.024;2023-06-22T12:49:37;41.00;42.10
38436;DHT22;24220;48.168;14.024;2023-06-22T12:52:13;41.20;41.40
38436;DHT22;24220;48.168;14.024;2023-06-22T12:54:43;41.50;42.10
38436;DHT22;24220;48.168;14.024;2023-06-22T12:57:22;41.90;41.00
38436;DHT22;24220;48.168;14.024;2023-06-22T12:59:53;42.20;40.30
38436;DHT22;24220;48.168;14.024;2023-06-22T13:02:20;42.50;40.50
38436;DHT22;24220;48.168;14.024;2023-06-22T13:04:48;42.80;40.80
38436;DHT22;24220;48.168;14.024;2023-06-22T13:07:15;43.00;39.60
38436;DHT22;24220;48.168;14.024;2023-06-22T13:09:50;43.20;39.70
38436;DHT22;24220;48.168;14.024;2023-06-22T13:12:21;43.40;39.60
38436;DHT22;24220;48.168;14.024;2023-06-22T13:14:50;43.60;39.10
38436;DHT22;24220;48.168;14.024;2023-06-22T13:17:17;43.70;39.50
38436;DHT22;24220;48.168;14.024;2023-06-22T13:19:47;43.80;39.40
38436;DHT22;24220;48.168;14.024;2023-06-22T13:22:34;43.80;39.80
38436;DHT22;24220;48.168;14.024;2023-06-22T13:25:08;43.80;39.60
38436;DHT22;24220;48.168;14.024;2023-06-22T13:27:40;43.90;39.40
38436;DHT22;24220;48.168;14.024;2023-06-22T13:30:08;43.80;40.00
38436;DHT22;24220;48.168;14.024;2023-06-22T13:32:40;43.70;38.80
38436;DHT22;24220;48.168;14.024;2023-06-22T13:35:10;43.60;38.40
38436;DHT22;24220;48.168;14.024;2023-06-22T13:37:40;43.60;39.20
38436;DHT22;24220;48.168;14.024;2023-06-22T13:40:08;43.50;38.90
38436;DHT22;24220;48.168;14.024;2023-06-22T13:42:38;43.50;38.00
38436;DHT22;24220;48.168;14.024;2023-06-22T13:45:06;43.50;38.30
38436;DHT22;24220;48.168;14.024;2023-06-22T13:47:36;43.50;37.80
38436;DHT22;24220;48.168;14.024;2023-06-22T13:50:04;43.50;38.20
38436;DHT22;24220;48.168;14.024;2023-06-22T13:52:32;43.40;38.90
38436;DHT22;24220;48.168;14.024;2023-06-22T13:54:59;43.10;38.20
38436;DHT22;24220;48.168;14.024;2023-06-22T13:57:26;42.80;38.70
38436;DHT22;24220;48.168;14.024;2023-06-22T13:59:54;42.40;39.50
38436;DHT22;24220;48.168;14.024;2023-06-22T14:02:21;41.90;39.30
38436;DHT22;24220;48.168;14.024;2023-06-22T14:04:49;41.50;39.80
38436;DHT22;24220;48.168;14.024;2023-06-22T14:07:16;41.20;40.20
38436;DHT22;24220;48.168;14.024;2023-06-22T14:09:46;40.80;40.60
38436;DHT22;24220;48.168;14.024;2023-06-22T14:12:19;40.40;41.00
38436;DHT22;24220;48.168;14.024;2023-06-22T14:14:48;40.00;41.40
38436;DHT22;24220;48.168;14.024;2023-06-22T14:17:15;39.70;42.30
38436;DHT22;24220;48.168;14.024;2023-06-22T14:19:45;39.30;42.30
38436;DHT22;24220;48.168;14.024;2023-06-22T14:22:13;39.10;42.90
38436;DHT22;24220;48.168;14.024;2023-06-22T14:24:40;38.80;42.90
38436;DHT22;24220;48.168;14.024;2023-06-22T14:27:07;38.50;43.30
38436;DHT22;24220;48.168;14.024;2023-06-22T14:29:38;38.30;43.60
38436;DHT22;24220;48.168;14.024;2023-06-22T14:32:06;38.10;44.00
38436;DHT22;24220;48.168;14.024;2023-06-22T14:34:34;37.90;44.30
38436;DHT22;24220;48.168;14.024;2023-06-22T14:37:07;37.80;45.00
38436;DHT22;24220;48.168;14.024;2023-06-22T14:39:36;37.60;44.70
38436;DHT22;24220;48.168;14.024;2023-06-22T14:42:04;37.40;45.40
38436;DHT22;24220;48.168;14.024;2023-06-22T14:44:31;37.30;45.30
38436;DHT22;24220;48.168;14.024;2023-06-22T14:46:59;37.20;45.40
38436;DHT22;24220;48.168;14.024;2023-06-22T14:49:26;37.00;45.60
38436;DHT22;24220;48.168;14.024;2023-06-22T14:51:54;36.90;46.10
38436;DHT22;24220;48.168;14.024;2023-06-22T14:54:21;36.90;46.60
38436;DHT22;24220;48.168;14.024;2023-06-22T14:56:51;36.70;46.60
38436;DHT22;24220;48.168;14.024;2023-06-22T14:59:20;36.60;46.60
38436;DHT22;24220;48.168;14.024;2023-06-22T15:01:48;36.50;47.00
38436;DHT22;24220;48.168;14.024;2023-06-22T15:04:15;36.50;47.10
38436;DHT22;24220;48.168;14.024;2023-06-22T15:06:43;36.40;47.50
38436;DHT22;24220;48.168;14.024;2023-06-22T15:09:13;36.40;47.80
38436;DHT22;24220;48.168;14.024;2023-06-22T15:11:41;36.30;48.00
38436;DHT22;24220;48.168;14.024;2023-06-22T15:14:08;36.30;48.00
38436;DHT22;24220;48.168;14.024;2023-06-22T15:16:38;36.20;48.10
38436;DHT22;24220;48.168;14.024;2023-06-22T15:19:05;36.10;48.10
38436;DHT22;24220;48.168;14.024;2023-06-22T15:21:32;36.10;48.30
38436;DHT22;24220;48.168;14.024;2023-06-22T15:24:00;36.00;48.50
38436;DHT22;24220;48.168;14.024;2023-06-22T15:26:30;36.00;48.80
38436;DHT22;24220;48.168;14.024;2023-06-22T15:28:57;36.00;48.80
38436;DHT22;24220;48.168;14.024;2023-06-22T15:31:26;35.90;49.20
38436;DHT22;24220;48.168;14.024;2023-06-22T15:33:54;35.80;49.40